createdAt,value
2022-08-05T00:02:07.301Z,2.83
2022-08-05T00:04:35.093Z,3.30
2022-08-05T00:07:27.164Z,3.38
2022-08-05T00:09:48.952Z,3.40
2022-08-05T00:12:15.977Z,2.92
2022-08-05T00:14:43.700Z,3.70
2022-08-05T00:17:18.898Z,3.67
2022-08-05T00:20:02.786Z,3.47
2022-08-05T00:22:30.121Z,3.95
2022-08-05T00:24:58.162Z,3.33
2022-08-05T00:27:36.356Z,4.10
2022-08-05T00:30:05.527Z,3.72
2022-08-05T00:32:38.306Z,4.40
2022-08-05T00:35:08.243Z,4.38
2022-08-05T00:37:53.604Z,4.77
2022-08-05T00:40:28.287Z,4.13
2022-08-05T00:42:58.033Z,4.90
2022-08-05T00:45:38.930Z,5.30
2022-08-05T00:48:14.569Z,5.80
2022-08-05T00:50:44.192Z,5.10
2022-08-05T00:54:01.162Z,5.93
2022-08-05T00:56:10.650Z,6.50
2022-08-05T00:58:38.911Z,6.22
2022-08-05T01:01:10.529Z,4.90
2022-08-05T01:03:39.245Z,5.45
2022-08-05T01:06:06.661Z,5.78
2022-08-05T01:08:44.536Z,6.22
2022-08-05T01:11:37.436Z,6.65
2022-08-05T01:14:08.713Z,6.35
2022-08-05T01:17:14.068Z,6.13
2022-08-05T01:20:00.894Z,4.68
2022-08-05T01:22:32.400Z,3.50
2022-08-05T01:25:39.789Z,3.45
2022-08-05T01:28:28.133Z,3.22
2022-08-05T01:31:09.447Z,2.80
2022-08-05T01:33:49.032Z,2.95
2022-08-05T01:36:19.126Z,3.30
2022-08-05T01:38:49.962Z,3.03
2022-08-05T01:41:22.816Z,2.72
2022-08-05T01:43:54.901Z,3.20
2022-08-05T01:46:42.099Z,3.10
2022-08-05T01:49:24.383Z,2.97
2022-08-05T01:51:59.120Z,3.00
2022-08-05T01:54:32.542Z,3.10
2022-08-05T01:58:11.344Z,3.38
2022-08-05T01:59:51.523Z,3.00
2022-08-05T02:02:26.252Z,3.20
2022-08-05T02:05:00.800Z,2.78
2022-08-05T02:07:30.344Z,3.10
2022-08-05T02:09:58.739Z,3.03
2022-08-05T02:12:44.667Z,3.10
2022-08-05T02:15:25.974Z,2.92
2022-08-05T02:18:31.052Z,3.30
2022-08-05T02:23:44.864Z,3.03
2022-08-05T02:26:19.098Z,2.70
2022-08-05T02:28:50.097Z,3.05
2022-08-05T02:31:26.880Z,2.60
2022-08-05T02:33:59.679Z,3.50
2022-08-05T02:36:31.451Z,2.90
2022-08-05T02:39:01.690Z,2.97
2022-08-05T02:41:43.415Z,3.17
2022-08-05T02:49:36.879Z,3.05
2022-08-05T02:52:11.558Z,2.83
2022-08-05T02:54:42.443Z,3.33
2022-08-05T02:58:20.023Z,3.42
2022-08-05T03:00:11.626Z,4.07
2022-08-05T03:02:40.789Z,3.80
2022-08-05T03:05:11.726Z,3.25
2022-08-05T03:08:00.810Z,3.08
2022-08-05T03:10:27.000Z,3.30
2022-08-05T03:12:54.412Z,3.17
2022-08-05T03:15:24.914Z,3.40
2022-08-05T03:17:55.967Z,3.47
2022-08-05T03:20:24.979Z,3.38
2022-08-05T03:22:53.198Z,3.55
2022-08-05T03:26:03.591Z,3.55
2022-08-05T03:28:14.117Z,3.13
2022-08-05T03:33:09.700Z,2.95
2022-08-05T03:35:40.840Z,3.30
2022-08-05T03:38:11.774Z,2.67
2022-08-05T03:40:48.596Z,3.10
2022-08-05T03:44:09.467Z,3.08
2022-08-05T03:46:05.256Z,3.35
2022-08-05T03:48:35.483Z,3.05
2022-08-05T03:52:37.866Z,3.03
2022-08-05T03:55:53.478Z,3.13
2022-08-05T03:56:58.972Z,2.90
2022-08-05T03:59:46.849Z,2.92
2022-08-05T04:02:38.218Z,3.00
2022-08-05T04:05:14.037Z,3.40
2022-08-05T04:07:58.195Z,3.10
2022-08-05T04:10:30.929Z,3.20
2022-08-05T04:12:59.454Z,2.92
2022-08-05T04:15:27.896Z,3.22
2022-08-05T04:18:07.006Z,3.10
2022-08-05T04:20:34.595Z,3.10
2022-08-05T04:23:02.429Z,2.70
2022-08-05T04:28:18.637Z,3.28
2022-08-05T04:30:45.975Z,2.83
2022-08-05T04:33:13.505Z,2.95
2022-08-05T04:36:11.403Z,2.60
2022-08-05T04:38:39.714Z,3.23
2022-08-05T04:41:09.654Z,2.70
2022-08-05T04:43:40.514Z,2.67
2022-08-05T04:46:13.766Z,3.30
2022-08-05T04:48:54.972Z,3.20
2022-08-05T04:51:24.963Z,3.30
2022-08-05T04:53:51.793Z,3.05
2022-08-05T04:56:34.298Z,3.13
2022-08-05T04:59:21.480Z,2.92
2022-08-05T05:02:07.373Z,3.10
2022-08-05T05:04:36.154Z,3.35
2022-08-05T05:07:05.398Z,2.78
2022-08-05T05:09:37.467Z,2.97
2022-08-05T05:14:33.183Z,2.38
2022-08-05T05:17:03.849Z,2.97
2022-08-05T05:19:36.398Z,3.00
2022-08-05T05:22:24.515Z,3.10
2022-08-05T05:24:57.732Z,3.08
2022-08-05T05:27:44.479Z,3.00
2022-08-05T05:30:30.802Z,2.80
2022-08-05T05:33:09.164Z,2.97
2022-08-05T05:35:47.668Z,4.03
2022-08-05T05:38:22.851Z,3.00
2022-08-05T05:40:57.253Z,2.85
2022-08-05T05:43:57.478Z,4.30
2022-08-05T05:46:15.854Z,4.07
2022-08-05T05:48:47.846Z,3.63
2022-08-05T05:51:49.907Z,3.03
2022-08-05T05:54:17.617Z,3.20
2022-08-05T05:56:47.462Z,2.97
2022-08-05T05:59:14.248Z,3.03
2022-08-05T06:01:57.945Z,3.20
2022-08-05T06:04:25.302Z,3.13
2022-08-05T06:06:52.372Z,2.83
2022-08-05T06:09:35.343Z,3.13
2022-08-05T06:12:06.669Z,3.03
2022-08-05T06:14:36.681Z,2.90
2022-08-05T06:17:21.897Z,2.83
2022-08-05T06:19:57.000Z,2.63
2022-08-05T06:22:29.239Z,2.95
2022-08-05T06:24:56.240Z,2.70
2022-08-05T06:28:12.136Z,2.85
2022-08-05T06:30:17.617Z,2.90
2022-08-05T06:32:47.189Z,2.85
2022-08-05T06:35:21.835Z,2.78
2022-08-05T06:38:09.797Z,2.40
2022-08-05T06:40:44.537Z,3.03
2022-08-05T06:43:51.761Z,2.78
2022-08-05T06:46:03.888Z,2.50
2022-08-05T06:48:53.524Z,3.45
2022-08-05T06:51:29.089Z,2.53
2022-08-05T06:54:03.470Z,2.88
2022-08-05T06:56:34.429Z,2.72
2022-08-05T06:59:03.392Z,3.25
2022-08-05T07:01:32.929Z,2.63
2022-08-05T07:04:02.299Z,2.60
2022-08-05T07:06:29.915Z,2.80
2022-08-05T07:08:59.145Z,2.30
2022-08-05T07:11:28.617Z,2.63
2022-08-05T07:14:15.492Z,2.40
2022-08-05T07:18:00.014Z,2.50
2022-08-05T07:22:28.682Z,2.92
2022-08-05T07:25:24.079Z,2.25
2022-08-05T07:27:58.772Z,2.78
2022-08-05T07:30:34.744Z,2.78
2022-08-05T07:33:10.593Z,2.47
2022-08-05T07:36:02.889Z,2.40
2022-08-05T07:38:33.288Z,3.10
2022-08-05T07:42:09.395Z,2.78
2022-08-05T07:43:57.459Z,2.30
2022-08-05T07:46:29.537Z,2.10
2022-08-05T07:49:02.903Z,2.70
2022-08-05T07:51:40.904Z,2.33
2022-08-05T07:54:23.329Z,2.28
2022-08-05T07:57:13.916Z,2.38
2022-08-05T07:59:41.551Z,2.17
2022-08-05T08:02:16.286Z,2.28
2022-08-05T08:04:49.195Z,1.90
2022-08-05T08:07:22.113Z,1.83
2022-08-05T08:09:52.268Z,2.20
2022-08-05T08:12:33.540Z,2.40
2022-08-05T08:15:09.528Z,2.42
2022-08-05T08:17:45.982Z,2.05
2022-08-05T08:20:42.981Z,1.92
2022-08-05T08:23:03.973Z,2.20
2022-08-05T08:25:59.329Z,2.00
2022-08-05T08:28:18.303Z,1.77
2022-08-05T08:33:16.798Z,1.90
2022-08-05T08:35:53.152Z,2.13
2022-08-05T08:38:35.210Z,1.88
2022-08-05T08:41:08.575Z,1.80
2022-08-05T08:45:21.001Z,1.92
2022-08-05T08:46:31.654Z,1.77
2022-08-05T08:49:17.329Z,1.77
2022-08-05T08:52:04.220Z,1.92
2022-08-05T08:54:36.225Z,1.90
2022-08-05T08:57:11.195Z,2.00
2022-08-05T08:59:39.098Z,1.77
2022-08-05T09:02:08.977Z,1.90
2022-08-05T09:04:58.578Z,1.67
2022-08-05T09:07:28.910Z,1.70
2022-08-05T09:09:56.433Z,1.70
2022-08-05T09:12:27.435Z,2.00
2022-08-05T09:15:06.122Z,3.13
2022-08-05T09:17:42.220Z,1.80
2022-08-05T09:20:36.164Z,1.90
2022-08-05T09:23:18.578Z,2.03
2022-08-05T09:26:00.858Z,1.95
2022-08-05T09:28:32.317Z,1.80
2022-08-05T09:31:43.899Z,2.00
2022-08-05T09:34:04.427Z,2.08
2022-08-05T09:36:59.958Z,1.55
2022-08-05T09:39:45.215Z,1.48
2022-08-05T09:42:23.039Z,1.60
2022-08-05T09:44:56.438Z,1.60
2022-08-05T09:47:36.394Z,1.50
2022-08-05T09:50:18.136Z,1.55
2022-08-05T09:53:01.652Z,1.60
2022-08-05T09:55:58.217Z,2.00
2022-08-05T09:58:26.580Z,1.60
2022-08-05T10:00:58.910Z,1.70
2022-08-05T10:03:26.213Z,1.90
2022-08-05T10:06:21.768Z,1.35
2022-08-05T10:08:53.733Z,1.48
2022-08-05T10:11:22.884Z,1.40
2022-08-05T10:13:54.516Z,1.50
2022-08-05T10:16:41.629Z,1.38
2022-08-05T10:19:23.609Z,1.50
2022-08-05T10:21:59.348Z,1.77
2022-08-05T10:24:27.362Z,1.35
2022-08-05T10:27:00.639Z,1.40
2022-08-05T10:30:06.668Z,1.55
2022-08-05T10:32:53.045Z,1.35
2022-08-05T10:37:40.123Z,1.40
2022-08-05T10:40:28.202Z,1.50
2022-08-05T10:43:04.692Z,1.77
2022-08-05T10:45:41.662Z,1.50
2022-08-05T10:48:52.674Z,1.10
2022-08-05T10:51:29.185Z,1.30
2022-08-05T10:54:01.794Z,1.45
2022-08-05T10:56:45.095Z,1.42
2022-08-05T11:00:03.553Z,1.40
2022-08-05T11:02:34.836Z,1.40
2022-08-05T11:05:09.348Z,1.40
2022-08-05T11:08:02.521Z,1.42
2022-08-05T11:10:38.130Z,1.50
2022-08-05T11:13:39.934Z,1.30
2022-08-05T11:16:23.316Z,1.40
2022-08-05T11:20:11.435Z,1.50
2022-08-05T11:22:49.712Z,1.48
2022-08-05T11:26:04.518Z,1.58
2022-08-05T11:28:17.252Z,0.95
2022-08-05T11:31:01.627Z,1.30
2022-08-05T11:33:46.640Z,1.23
2022-08-05T11:36:33.983Z,1.27
2022-08-05T11:39:01.936Z,1.30
2022-08-05T11:41:54.613Z,1.40
2022-08-05T11:44:40.849Z,1.15
2022-08-05T11:47:15.265Z,1.10
2022-08-05T11:49:58.675Z,1.27
2022-08-05T11:52:29.419Z,1.30
2022-08-05T11:55:07.343Z,1.20
2022-08-05T11:58:08.002Z,1.13
2022-08-05T12:00:31.700Z,1.10
2022-08-05T12:03:15.718Z,1.30
2022-08-05T12:05:51.227Z,1.20
2022-08-05T12:08:18.834Z,1.10
2022-08-05T12:10:49.708Z,1.33
2022-08-05T12:13:47.659Z,1.20
2022-08-05T12:16:15.069Z,1.23
2022-08-05T12:18:52.484Z,1.13
2022-08-05T12:21:20.969Z,1.20
2022-08-05T12:24:08.989Z,1.27
2022-08-05T12:26:36.990Z,1.05
2022-08-05T12:29:09.582Z,1.02
2022-08-05T12:31:43.498Z,1.00
2022-08-05T12:34:21.346Z,1.27
2022-08-05T12:36:50.287Z,1.00
2022-08-05T12:39:17.778Z,1.27
2022-08-05T12:41:45.830Z,1.23
2022-08-05T12:44:32.712Z,2.30
2022-08-05T12:47:02.158Z,1.23
2022-08-05T12:50:03.935Z,1.30
2022-08-05T12:52:42.191Z,0.98
2022-08-05T12:55:26.603Z,1.17
2022-08-05T12:58:50.347Z,1.20
2022-08-05T13:02:01.385Z,1.08
2022-08-05T13:03:42.526Z,1.08
2022-08-05T13:06:17.536Z,4.28
2022-08-05T13:08:51.524Z,1.85
2022-08-05T13:12:01.206Z,1.30
2022-08-05T13:14:19.592Z,1.90
2022-08-05T13:16:51.820Z,1.67
2022-08-05T13:19:21.405Z,1.10
2022-08-05T13:21:52.570Z,1.10
2022-08-05T13:24:36.312Z,1.20
2022-08-05T13:27:11.357Z,0.98
2022-08-05T13:29:59.469Z,0.90
2022-08-05T13:32:42.042Z,1.20
2022-08-05T13:35:14.458Z,1.13
2022-08-05T13:37:55.529Z,1.10
2022-08-05T13:40:36.766Z,0.90
2022-08-05T13:43:12.183Z,1.20
2022-08-05T13:45:43.310Z,1.17
2022-08-05T13:48:57.827Z,1.20
2022-08-05T13:51:08.101Z,1.20
2022-08-05T13:53:48.210Z,1.25
2022-08-05T13:56:18.442Z,1.30
2022-08-05T13:58:53.162Z,1.10
2022-08-05T14:01:25.944Z,1.40
2022-08-05T14:04:21.891Z,1.25
2022-08-05T14:06:58.730Z,1.17
2022-08-05T14:09:43.034Z,1.40
2022-08-05T14:12:17.413Z,1.23
2022-08-05T14:14:46.142Z,1.20
2022-08-05T14:17:16.946Z,1.35
2022-08-05T14:19:55.144Z,1.17
2022-08-05T14:22:23.976Z,0.90
2022-08-05T14:24:57.351Z,1.17
2022-08-05T14:27:24.357Z,1.30
2022-08-05T14:29:55.372Z,1.13
2022-08-05T14:32:27.686Z,1.02
2022-08-05T14:34:56.926Z,1.15
2022-08-05T14:37:48.146Z,1.90
2022-08-05T14:40:14.257Z,1.25
2022-08-05T14:42:44.164Z,1.10
2022-08-05T14:45:11.519Z,1.25
2022-08-05T14:48:05.027Z,1.30
2022-08-05T14:50:25.523Z,1.20
2022-08-05T14:52:57.679Z,1.20
2022-08-05T14:55:38.443Z,1.20
2022-08-05T14:58:11.347Z,1.30
2022-08-05T15:00:58.492Z,1.08
2022-08-05T15:03:33.064Z,0.90
2022-08-05T15:06:07.803Z,0.88
2022-08-05T15:09:01.146Z,0.93
2022-08-05T15:11:51.920Z,1.23
2022-08-05T15:14:33.511Z,1.13
2022-08-05T15:17:03.844Z,1.20
2022-08-05T15:19:31.848Z,1.10
2022-08-05T15:22:01.333Z,1.10
2022-08-05T15:24:29.588Z,1.20
2022-08-05T15:26:57.816Z,1.10
2022-08-05T15:29:30.219Z,0.95
2022-08-05T15:32:03.166Z,0.95
2022-08-05T15:34:32.294Z,1.25
2022-08-05T15:37:04.811Z,1.10
2022-08-05T15:41:04.619Z,1.30
2022-08-05T15:42:55.733Z,1.25
2022-08-05T15:45:10.520Z,1.42
2022-08-05T15:47:41.681Z,1.38
2022-08-05T15:50:15.383Z,1.30
2022-08-05T15:52:53.048Z,1.73
2022-08-05T15:55:24.454Z,1.40
2022-08-05T15:57:52.707Z,1.05
2022-08-05T16:00:30.635Z,1.52
2022-08-05T16:03:07.711Z,1.27
2022-08-05T16:05:34.729Z,1.17
2022-08-05T16:08:07.161Z,1.17
2022-08-05T16:10:35.317Z,0.98
2022-08-05T16:13:03.260Z,1.13
2022-08-05T16:15:32.775Z,1.20
2022-08-05T16:18:01.000Z,1.40
2022-08-05T16:20:31.209Z,1.20
2022-08-05T16:22:59.373Z,1.08
2022-08-05T16:25:34.196Z,1.25
2022-08-05T16:28:06.529Z,1.13
2022-08-05T16:30:36.938Z,1.30
2022-08-05T16:33:03.802Z,1.38
2022-08-05T16:35:33.453Z,1.27
2022-08-05T16:38:18.448Z,1.30
2022-08-05T16:40:55.814Z,1.23
2022-08-05T16:43:33.039Z,1.45
2022-08-05T16:46:04.415Z,1.23
2022-08-05T16:48:38.463Z,1.10
2022-08-05T16:51:09.276Z,1.20
2022-08-05T16:54:04.304Z,1.33
2022-08-05T16:56:30.752Z,1.15
2022-08-05T16:58:58.398Z,1.35
2022-08-05T17:03:52.718Z,1.30
2022-08-05T17:06:20.685Z,1.30
2022-08-05T17:08:54.163Z,1.30
2022-08-05T17:11:25.617Z,1.30
2022-08-05T17:14:05.751Z,1.48
2022-08-05T17:16:37.916Z,1.60
2022-08-05T17:19:07.286Z,1.40
2022-08-05T17:21:37.412Z,1.10
2022-08-05T17:24:30.101Z,1.30
2022-08-05T17:26:58.088Z,0.88
2022-08-05T17:29:33.288Z,1.52
2022-08-05T17:32:11.262Z,1.30
2022-08-05T17:34:43.662Z,1.45
2022-08-05T17:37:27.213Z,1.65
2022-08-05T17:39:59.738Z,1.10
2022-08-05T17:42:31.991Z,1.17
2022-08-05T17:45:17.863Z,1.13
2022-08-05T17:47:53.391Z,1.45
2022-08-05T17:50:27.636Z,1.45
2022-08-05T17:52:59.166Z,1.50
2022-08-05T17:55:38.368Z,1.33
2022-08-05T17:58:12.274Z,1.73
2022-08-05T18:00:45.117Z,1.65
2022-08-05T18:03:48.375Z,1.80
2022-08-05T18:06:11.217Z,1.60
2022-08-05T18:08:44.845Z,1.60
2022-08-05T18:11:24.253Z,1.63
2022-08-05T18:14:13.201Z,1.63
2022-08-05T18:16:51.016Z,1.92
2022-08-05T18:19:22.896Z,1.30
2022-08-05T18:22:07.850Z,1.70
2022-08-05T18:24:38.040Z,1.63
2022-08-05T18:27:12.422Z,1.45
2022-08-05T18:29:54.004Z,1.52
2022-08-05T18:32:28.123Z,1.63
2022-08-05T18:34:57.767Z,1.70
2022-08-05T18:37:33.524Z,1.40
2022-08-05T18:41:50.536Z,1.88
2022-08-05T18:42:50.955Z,1.75
2022-08-05T18:45:19.644Z,1.60
2022-08-05T18:47:50.144Z,1.60
2022-08-05T18:50:45.268Z,1.70
2022-08-05T18:53:20.593Z,2.70
2022-08-05T18:58:18.690Z,1.95
2022-08-05T19:00:54.752Z,1.90
2022-08-05T19:03:53.453Z,2.00
2022-08-05T19:06:18.992Z,2.33
2022-08-05T19:08:49.323Z,2.10
2022-08-05T19:11:16.501Z,2.40
2022-08-05T19:14:00.886Z,3.83
2022-08-05T19:16:36.954Z,2.58
2022-08-05T19:19:14.307Z,2.50
2022-08-05T19:21:41.823Z,2.78
2022-08-05T19:24:12.624Z,2.50
2022-08-05T19:26:43.738Z,3.00
2022-08-05T19:29:23.875Z,3.35
2022-08-05T19:31:57.333Z,2.78
2022-08-05T19:34:24.951Z,2.70
2022-08-05T19:36:52.040Z,2.53
2022-08-05T19:39:19.507Z,2.53
2022-08-05T19:42:06.059Z,2.65
2022-08-05T19:44:40.223Z,2.20
2022-08-05T19:47:15.228Z,1.95
2022-08-05T19:49:43.474Z,2.08
2022-08-05T19:52:31.205Z,2.22
2022-08-05T19:55:07.011Z,1.90
2022-08-05T19:58:07.153Z,2.40
2022-08-05T20:00:36.002Z,2.40
2022-08-05T20:03:05.227Z,2.33
2022-08-05T20:05:50.113Z,2.15
2022-08-05T20:08:19.746Z,2.10
2022-08-05T20:10:49.742Z,2.53
2022-08-05T20:13:17.715Z,3.05
2022-08-05T20:18:33.094Z,2.20
2022-08-05T20:21:04.702Z,2.47
2022-08-05T20:23:40.479Z,2.42
2022-08-05T20:26:19.552Z,2.80
2022-08-05T20:28:51.020Z,3.05
2022-08-05T20:31:21.964Z,2.58
2022-08-05T20:33:50.628Z,2.20
2022-08-05T20:36:20.630Z,2.43
2022-08-05T20:38:53.494Z,1.88
2022-08-05T20:41:26.832Z,2.25
2022-08-05T20:43:59.551Z,2.17
2022-08-05T20:46:30.236Z,2.45
2022-08-05T20:48:57.252Z,2.40
2022-08-05T20:51:24.039Z,2.13
2022-08-05T20:53:56.872Z,2.30
2022-08-05T20:56:29.899Z,2.30
2022-08-05T20:58:59.961Z,2.33
2022-08-05T21:01:41.575Z,2.50
2022-08-05T21:04:10.743Z,2.30
2022-08-05T21:06:45.489Z,2.45
2022-08-05T21:09:15.024Z,2.20
2022-08-05T21:12:11.014Z,2.42
2022-08-05T21:14:34.921Z,2.50
2022-08-05T21:17:06.271Z,2.50
2022-08-05T21:19:47.422Z,2.13
2022-08-05T21:22:18.602Z,2.10
2022-08-05T21:24:51.913Z,2.40
2022-08-05T21:27:25.455Z,2.85
2022-08-05T21:29:58.467Z,2.22
2022-08-05T21:32:29.294Z,2.22
2022-08-05T21:35:17.361Z,2.25
2022-08-05T21:37:53.471Z,2.70
2022-08-05T21:40:23.119Z,2.10
2022-08-05T21:42:52.061Z,2.45
2022-08-05T21:45:25.118Z,3.30
2022-08-05T21:47:55.621Z,3.38
2022-08-05T21:50:26.460Z,4.13
2022-08-05T21:52:59.017Z,3.22
2022-08-05T21:56:00.883Z,3.33
2022-08-05T21:58:20.392Z,3.08
2022-08-05T22:00:55.781Z,3.47
2022-08-05T22:03:48.223Z,3.92
2022-08-05T22:06:10.654Z,4.32
2022-08-05T22:08:42.613Z,4.47
2022-08-05T22:11:15.576Z,4.60
2022-08-05T22:14:19.746Z,3.45
2022-08-05T22:16:41.722Z,3.00
2022-08-05T22:20:03.414Z,3.30
2022-08-05T22:22:06.105Z,3.50
2022-08-05T22:24:53.587Z,4.07
2022-08-05T22:28:08.275Z,3.85
2022-08-05T22:30:32.266Z,3.38
2022-08-05T22:33:15.139Z,2.50
2022-08-05T22:35:48.537Z,2.53
2022-08-05T22:38:15.860Z,2.30
2022-08-05T22:40:49.871Z,2.55
2022-08-05T22:43:36.973Z,2.65
2022-08-05T22:46:12.165Z,2.40
2022-08-05T22:48:48.251Z,2.33
2022-08-05T22:51:15.983Z,2.63
2022-08-05T22:53:51.875Z,2.33
2022-08-05T22:56:30.010Z,2.58
2022-08-05T22:59:00.102Z,2.67
2022-08-05T23:02:04.237Z,2.20
2022-08-05T23:04:20.065Z,2.60
2022-08-05T23:06:47.858Z,2.40
2022-08-05T23:09:27.194Z,2.15
2022-08-05T23:12:01.995Z,2.38
2022-08-05T23:14:32.240Z,2.90
2022-08-05T23:17:24.043Z,2.33
2022-08-05T23:19:57.461Z,2.50
2022-08-05T23:22:27.318Z,4.10
2022-08-05T23:24:55.432Z,4.65
2022-08-05T23:27:22.849Z,5.18
2022-08-05T23:29:51.054Z,5.47
2022-08-05T23:32:22.750Z,5.63
2022-08-05T23:34:50.815Z,5.75
2022-08-05T23:37:18.106Z,6.63
2022-08-05T23:39:54.600Z,5.35
2022-08-05T23:42:23.545Z,4.55
2022-08-05T23:44:57.246Z,3.67
2022-08-05T23:47:25.096Z,3.40
2022-08-05T23:49:55.656Z,3.60
2022-08-05T23:52:30.516Z,4.00
2022-08-05T23:55:00.477Z,4.18
2022-08-05T23:57:29.180Z,3.65
